createdAt,value
2022-09-06T00:00:19.687Z,29.65
2022-09-06T00:00:49.746Z,29.66
2022-09-06T00:01:19.781Z,29.61
2022-09-06T00:01:49.806Z,29.65
2022-09-06T00:02:19.910Z,29.65
2022-09-06T00:02:50.015Z,29.62
2022-09-06T00:03:20.056Z,29.60
2022-09-06T00:03:50.198Z,29.61
2022-09-06T00:04:20.262Z,29.59
2022-09-06T00:04:50.302Z,29.66
2022-09-06T00:05:20.346Z,29.63
2022-09-06T00:05:50.372Z,29.58
2022-09-06T00:06:20.407Z,29.63
2022-09-06T00:06:50.439Z,29.71
2022-09-06T00:07:20.474Z,29.63
2022-09-06T00:07:50.505Z,29.66
2022-09-06T00:08:20.544Z,29.60
2022-09-06T00:08:50.579Z,29.63
2022-09-06T00:09:20.611Z,29.61
2022-09-06T00:09:50.642Z,29.58
2022-09-06T00:10:20.681Z,29.60
2022-09-06T00:10:50.719Z,29.63
2022-09-06T00:11:20.747Z,29.58
2022-09-06T00:11:50.779Z,29.58
2022-09-06T00:12:20.814Z,29.57
2022-09-06T00:12:50.841Z,29.61
2022-09-06T00:13:20.879Z,29.60
2022-09-06T00:13:50.915Z,29.57
2022-09-06T00:14:20.954Z,29.60
2022-09-06T00:14:50.981Z,29.60
2022-09-06T00:15:21.014Z,29.58
2022-09-06T00:15:51.173Z,29.58
2022-09-06T00:16:21.201Z,29.57
2022-09-06T00:16:51.137Z,29.55
2022-09-06T00:17:21.163Z,29.58
2022-09-06T00:17:51.193Z,29.60
2022-09-06T00:18:21.269Z,29.58
2022-09-06T00:18:51.268Z,29.61
2022-09-06T00:19:21.306Z,29.58
2022-09-06T00:19:51.340Z,29.63
2022-09-06T00:20:21.396Z,29.61
2022-09-06T00:20:51.423Z,29.53
2022-09-06T00:21:21.455Z,29.58
2022-09-06T00:21:51.493Z,29.55
2022-09-06T00:22:21.524Z,29.58
2022-09-06T00:22:51.560Z,29.58
2022-09-06T00:23:21.596Z,29.53
2022-09-06T00:23:51.626Z,29.55
2022-09-06T00:24:21.658Z,29.59
2022-09-06T00:24:51.689Z,29.58
2022-09-06T00:25:21.722Z,29.57
2022-09-06T00:25:51.755Z,29.58
2022-09-06T00:26:21.792Z,29.53
2022-09-06T00:26:51.801Z,29.58
2022-09-06T00:27:21.797Z,29.60
2022-09-06T00:27:51.919Z,29.63
2022-09-06T00:28:21.965Z,29.61
2022-09-06T00:28:51.945Z,29.55
2022-09-06T00:29:21.942Z,29.60
2022-09-06T00:29:51.935Z,29.60
2022-09-06T00:30:21.935Z,29.57
2022-09-06T00:30:52.112Z,29.60
2022-09-06T00:31:22.182Z,29.56
2022-09-06T00:31:52.196Z,29.58
2022-09-06T00:32:22.184Z,29.60
2022-09-06T00:32:52.179Z,29.58
2022-09-06T00:33:22.227Z,29.55
2022-09-06T00:33:52.179Z,29.58
2022-09-06T00:34:22.173Z,29.56
2022-09-06T00:34:52.171Z,29.58
2022-09-06T00:35:22.167Z,29.63
2022-09-06T00:35:52.173Z,29.56
2022-09-06T00:36:22.169Z,29.57
2022-09-06T00:36:52.180Z,29.61
2022-09-06T00:37:22.213Z,29.58
2022-09-06T00:37:52.248Z,29.63
2022-09-06T00:38:22.312Z,29.56
2022-09-06T00:38:52.345Z,29.60
2022-09-06T00:39:22.574Z,29.58
2022-09-06T00:39:52.480Z,29.63
2022-09-06T00:40:22.427Z,29.57
2022-09-06T00:40:52.465Z,29.60
2022-09-06T00:41:22.501Z,29.57
2022-09-06T00:41:52.534Z,29.55
2022-09-06T00:42:22.564Z,29.63
2022-09-06T00:42:52.595Z,29.57
2022-09-06T00:43:22.631Z,29.63
2022-09-06T00:43:52.677Z,29.63
2022-09-06T00:44:22.707Z,29.59
2022-09-06T00:44:52.747Z,29.58
2022-09-06T00:45:22.782Z,29.55
2022-09-06T00:45:52.880Z,29.59
2022-09-06T00:46:22.971Z,29.58
2022-09-06T00:46:52.978Z,29.56
2022-09-06T00:47:23.008Z,29.61
2022-09-06T00:47:53.044Z,29.63
2022-09-06T00:48:23.084Z,29.58
2022-09-06T00:48:53.102Z,29.59
2022-09-06T00:49:23.138Z,29.58
2022-09-06T00:49:53.175Z,29.56
2022-09-06T00:50:23.203Z,29.61
2022-09-06T00:50:53.242Z,29.61
2022-09-06T00:51:23.274Z,29.61
2022-09-06T00:51:53.304Z,29.56
2022-09-06T00:52:23.336Z,29.61
2022-09-06T00:52:53.373Z,29.58
2022-09-06T00:53:23.402Z,29.58
2022-09-06T00:53:53.435Z,29.59
2022-09-06T00:54:23.471Z,29.61
2022-09-06T00:54:53.505Z,29.56
2022-09-06T00:55:23.539Z,29.56
2022-09-06T00:55:53.578Z,29.50
2022-09-06T00:56:23.605Z,29.64
2022-09-06T00:56:53.645Z,29.59
2022-09-06T00:57:23.678Z,29.59
2022-09-06T00:57:53.740Z,29.58
2022-09-06T00:58:23.779Z,29.56
2022-09-06T00:58:53.816Z,29.59
2022-09-06T00:59:23.843Z,29.56
2022-09-06T00:59:53.879Z,29.55
2022-09-06T01:00:23.916Z,29.58
2022-09-06T01:00:53.945Z,29.55
2022-09-06T01:01:24.100Z,29.64
2022-09-06T01:01:54.177Z,29.51
2022-09-06T01:02:24.287Z,29.59
2022-09-06T01:02:54.224Z,29.58
2022-09-06T01:03:24.252Z,29.58
2022-09-06T01:03:54.284Z,29.56
2022-09-06T01:04:24.315Z,29.59
2022-09-06T01:04:54.345Z,29.59
2022-09-06T01:05:24.377Z,29.58
2022-09-06T01:05:54.767Z,29.59
2022-09-06T01:06:24.438Z,29.63
2022-09-06T01:06:54.461Z,29.58
2022-09-06T01:07:24.491Z,29.56
2022-09-06T01:07:54.541Z,29.59
2022-09-06T01:08:24.575Z,29.54
2022-09-06T01:08:54.604Z,29.61
2022-09-06T01:09:24.643Z,29.58
2022-09-06T01:09:54.674Z,29.55
2022-09-06T01:10:24.711Z,29.58
2022-09-06T01:10:54.762Z,29.58
2022-09-06T01:11:24.794Z,29.58
2022-09-06T01:11:54.822Z,29.56
2022-09-06T01:12:24.852Z,29.58
2022-09-06T01:12:54.889Z,29.64
2022-09-06T01:13:24.916Z,29.59
2022-09-06T01:13:54.954Z,29.58
2022-09-06T01:14:24.986Z,29.61
2022-09-06T01:14:55.016Z,29.59
2022-09-06T01:15:25.090Z,29.57
2022-09-06T01:15:55.274Z,29.61
2022-09-06T01:16:25.186Z,29.61
2022-09-06T01:16:55.222Z,29.61
2022-09-06T01:17:25.254Z,29.58
2022-09-06T01:17:55.286Z,29.62
2022-09-06T01:18:25.353Z,29.59
2022-09-06T01:18:55.370Z,29.64
2022-09-06T01:19:25.398Z,29.62
2022-09-06T01:19:55.429Z,29.62
2022-09-06T01:20:25.465Z,29.59
2022-09-06T01:20:55.517Z,29.64
2022-09-06T01:21:25.547Z,29.59
2022-09-06T01:21:55.583Z,29.58
2022-09-06T01:22:25.613Z,29.56
2022-09-06T01:22:55.639Z,29.59
2022-09-06T01:23:25.677Z,29.64
2022-09-06T01:23:55.713Z,29.61
2022-09-06T01:24:25.745Z,29.58
2022-09-06T01:24:55.783Z,29.58
2022-09-06T01:25:25.818Z,29.53
2022-09-06T01:25:55.857Z,29.62
2022-09-06T01:26:25.891Z,29.61
2022-09-06T01:26:55.904Z,29.59
2022-09-06T01:27:26.025Z,29.61
2022-09-06T01:27:56.023Z,29.59
2022-09-06T01:29:04.830Z,29.59
2022-09-06T01:29:34.908Z,29.66
2022-09-06T01:30:04.989Z,29.64
2022-09-06T01:30:35.164Z,29.64
2022-09-06T01:31:05.212Z,29.65
2022-09-06T01:31:35.198Z,29.71
2022-09-06T01:32:05.281Z,29.66
2022-09-06T01:32:35.375Z,29.62
2022-09-06T01:33:05.464Z,29.66
2022-09-06T01:33:35.544Z,29.66
2022-09-06T01:34:05.626Z,29.68
2022-09-06T01:34:35.704Z,29.66
2022-09-06T01:35:05.789Z,29.68
2022-09-06T01:35:35.865Z,29.63
2022-09-06T01:36:05.945Z,29.69
2022-09-06T01:36:37.671Z,29.66
2022-09-06T01:37:10.200Z,29.66
2022-09-06T01:37:36.254Z,29.69
2022-09-06T01:38:06.340Z,29.68
2022-09-06T01:38:36.421Z,29.65
2022-09-06T01:39:06.535Z,29.65
2022-09-06T01:39:36.649Z,29.66
2022-09-06T01:40:06.596Z,29.68
2022-09-06T01:40:36.699Z,29.71
2022-09-06T01:41:06.690Z,29.66
2022-09-06T01:41:36.685Z,29.63
2022-09-06T01:42:06.799Z,29.63
2022-09-06T01:42:36.933Z,29.70
2022-09-06T01:43:10.667Z,29.62
2022-09-06T01:43:36.923Z,29.66
2022-09-06T01:44:07.041Z,29.66
2022-09-06T01:44:37.158Z,29.65
2022-09-06T01:45:07.273Z,29.66
2022-09-06T01:45:37.388Z,29.66
2022-09-06T01:46:07.485Z,29.65
2022-09-06T01:46:37.523Z,29.65
2022-09-06T01:47:07.497Z,29.66
2022-09-06T01:47:37.649Z,29.63
2022-09-06T01:48:07.638Z,29.59
2022-09-06T01:48:37.754Z,29.66
2022-09-06T01:49:07.753Z,29.63
2022-09-06T01:49:37.866Z,29.65
2022-09-06T01:50:07.988Z,29.66
2022-09-06T01:50:37.980Z,29.62
2022-09-06T01:51:08.097Z,29.66
2022-09-06T01:51:38.213Z,29.63
2022-09-06T01:52:08.335Z,29.62
2022-09-06T01:52:38.476Z,29.62
2022-09-06T01:53:08.473Z,29.63
2022-09-06T01:53:38.467Z,29.59
2022-09-06T01:54:08.584Z,29.56
2022-09-06T01:54:38.581Z,29.62
2022-09-06T01:55:08.700Z,29.64
2022-09-06T01:55:38.690Z,29.64
2022-09-06T01:56:08.807Z,29.68
2022-09-06T01:56:38.804Z,29.65
2022-09-06T01:57:08.801Z,29.62
2022-09-06T01:57:38.955Z,29.63
2022-09-06T01:58:08.954Z,29.65
2022-09-06T01:58:39.064Z,29.66
2022-09-06T01:59:09.180Z,29.65
2022-09-06T01:59:39.181Z,29.64
2022-09-06T02:00:09.323Z,29.63
2022-09-06T02:00:39.293Z,29.65
2022-09-06T02:01:09.550Z,29.68
2022-09-06T02:01:39.460Z,29.66
2022-09-06T02:02:09.517Z,29.65
2022-09-06T02:02:39.545Z,29.65
2022-09-06T02:03:09.507Z,29.68
2022-09-06T02:03:39.626Z,29.63
2022-09-06T02:04:09.742Z,29.66
2022-09-06T02:04:39.859Z,29.71
2022-09-06T02:05:09.970Z,29.65
2022-09-06T02:05:40.087Z,29.68
2022-09-06T02:06:10.219Z,29.66
2022-09-06T02:06:40.224Z,29.69
2022-09-06T02:07:10.214Z,29.69
2022-09-06T02:07:40.216Z,29.63
2022-09-06T02:08:10.333Z,29.66
2022-09-06T02:08:40.449Z,29.69
2022-09-06T02:09:10.449Z,29.69
2022-09-06T02:09:40.441Z,29.69
2022-09-06T02:10:10.440Z,29.69
2022-09-06T02:10:40.437Z,29.68
2022-09-06T02:11:10.551Z,29.66
2022-09-06T02:11:40.544Z,29.65
2022-09-06T02:12:10.543Z,29.65
2022-09-06T02:12:40.668Z,29.69
2022-09-06T02:13:10.659Z,29.71
2022-09-06T02:13:40.653Z,29.63
2022-09-06T02:14:10.771Z,29.65
2022-09-06T02:14:40.890Z,29.68
2022-09-06T02:15:10.882Z,29.71
2022-09-06T02:15:40.999Z,29.67
2022-09-06T02:16:11.115Z,29.69
2022-09-06T02:16:41.261Z,29.68
2022-09-06T02:17:11.299Z,29.69
2022-09-06T02:17:41.247Z,29.74
2022-09-06T02:18:11.242Z,29.69
2022-09-06T02:18:41.362Z,29.71
2022-09-06T02:19:11.478Z,29.71
2022-09-06T02:19:41.483Z,29.63
2022-09-06T02:20:11.475Z,29.71
2022-09-06T02:20:41.592Z,29.75
2022-09-06T02:21:11.710Z,29.71
2022-09-06T02:21:41.824Z,29.71
2022-09-06T02:22:11.945Z,29.66
2022-09-06T02:22:42.062Z,29.72
2022-09-06T02:23:12.055Z,29.74
2022-09-06T02:23:42.171Z,29.71
2022-09-06T02:24:12.289Z,29.71
2022-09-06T02:24:42.286Z,29.72
2022-09-06T02:25:12.397Z,29.72
2022-09-06T02:25:42.393Z,29.71
2022-09-06T02:26:12.393Z,29.74
2022-09-06T02:26:42.510Z,29.74
2022-09-06T02:27:12.633Z,29.69
2022-09-06T02:27:42.751Z,29.71
2022-09-06T02:28:12.870Z,29.72
2022-09-06T02:28:42.976Z,29.66
2022-09-06T02:29:13.055Z,29.74
2022-09-06T02:29:43.131Z,29.75
2022-09-06T02:30:13.213Z,29.69
2022-09-06T02:30:43.326Z,29.72
2022-09-06T02:31:13.452Z,29.74
2022-09-06T02:31:43.404Z,29.70
2022-09-06T02:32:13.487Z,29.67
2022-09-06T02:32:43.563Z,29.74
2022-09-06T02:33:13.644Z,29.70
2022-09-06T02:33:43.735Z,29.70
2022-09-06T02:34:13.815Z,29.71
2022-09-06T02:34:43.901Z,29.75
2022-09-06T02:35:13.980Z,29.74
2022-09-06T02:35:44.066Z,29.74
2022-09-06T02:36:14.150Z,29.72
2022-09-06T02:36:44.233Z,29.73
2022-09-06T02:37:14.330Z,29.81
2022-09-06T02:37:44.397Z,29.78
2022-09-06T02:38:14.475Z,29.77
2022-09-06T02:38:44.567Z,29.72
2022-09-06T02:39:14.686Z,29.74
2022-09-06T02:39:44.858Z,29.72
2022-09-06T02:40:14.856Z,29.74
2022-09-06T02:40:44.974Z,29.77
2022-09-06T02:41:15.090Z,29.75
2022-09-06T02:41:45.090Z,29.69
2022-09-06T02:42:15.082Z,29.77
2022-09-06T02:42:45.196Z,29.78
2022-09-06T02:43:15.315Z,29.75
2022-09-06T02:43:45.430Z,29.74
2022-09-06T02:44:15.552Z,29.77
2022-09-06T02:44:45.667Z,29.78
2022-09-06T02:45:15.661Z,29.78
2022-09-06T02:45:45.872Z,29.78
2022-09-06T02:46:15.937Z,29.75
2022-09-06T02:46:45.826Z,29.75
2022-09-06T02:47:15.820Z,29.76
2022-09-06T02:47:45.934Z,29.75
2022-09-06T02:48:15.932Z,29.77
2022-09-06T02:48:46.050Z,29.77
2022-09-06T02:49:16.169Z,29.75
2022-09-06T02:49:46.288Z,29.75
2022-09-06T02:50:16.285Z,29.75
2022-09-06T02:50:46.403Z,29.77
2022-09-06T02:51:16.522Z,29.78
2022-09-06T02:51:46.526Z,29.82
2022-09-06T02:52:16.518Z,29.78
2022-09-06T02:52:46.632Z,29.80
2022-09-06T02:53:16.751Z,29.82
2022-09-06T02:53:46.746Z,29.78
2022-09-06T02:54:16.859Z,29.73
2022-09-06T02:54:46.980Z,29.80
2022-09-06T02:55:16.980Z,29.77
2022-09-06T02:55:47.092Z,29.78
2022-09-06T02:56:17.214Z,29.76
2022-09-06T02:56:51.990Z,29.81
2022-09-06T02:57:17.354Z,29.78
2022-09-06T02:57:47.468Z,29.81
2022-09-06T02:58:17.588Z,29.76
2022-09-06T02:58:47.705Z,29.80
2022-09-06T02:59:17.817Z,29.76
2022-09-06T02:59:47.815Z,29.78
2022-09-06T03:00:17.813Z,29.76
2022-09-06T03:00:48.004Z,29.78
2022-09-06T03:01:18.076Z,29.78
2022-09-06T03:01:48.079Z,29.80
2022-09-06T03:02:18.258Z,29.82
2022-09-06T03:02:48.284Z,29.84
2022-09-06T03:03:18.312Z,29.80
2022-09-06T03:03:48.430Z,29.81
2022-09-06T03:04:18.544Z,29.76
2022-09-06T03:04:48.661Z,29.78
2022-09-06T03:05:18.659Z,29.78
2022-09-06T03:05:48.661Z,29.82
2022-09-06T03:06:18.776Z,29.75
2022-09-06T03:06:48.777Z,29.76
2022-09-06T03:07:18.772Z,29.81
2022-09-06T03:07:48.887Z,29.75
2022-09-06T03:08:19.006Z,29.75
2022-09-06T03:08:49.131Z,29.81
2022-09-06T03:09:19.241Z,29.81
2022-09-06T03:09:49.356Z,29.76
2022-09-06T03:10:19.474Z,29.78
2022-09-06T03:10:49.596Z,29.75
2022-09-06T03:11:19.708Z,29.80
2022-09-06T03:11:49.714Z,29.82
2022-09-06T03:12:19.703Z,29.81
2022-09-06T03:12:49.819Z,29.82
2022-09-06T03:13:19.937Z,29.82
2022-09-06T03:13:49.932Z,29.78
2022-09-06T03:14:20.048Z,29.82
2022-09-06T03:14:54.729Z,29.82
2022-09-06T03:15:20.210Z,29.81
2022-09-06T03:15:50.204Z,29.79
2022-09-06T03:16:20.412Z,29.81
2022-09-06T03:16:50.494Z,29.82
2022-09-06T03:17:20.499Z,29.82
2022-09-06T03:17:50.616Z,29.81
2022-09-06T03:18:20.794Z,29.82
2022-09-06T03:18:50.786Z,29.79
2022-09-06T03:19:20.907Z,29.76
2022-09-06T03:19:50.897Z,29.82
2022-09-06T03:20:21.017Z,29.82
2022-09-06T03:20:51.014Z,29.81
2022-09-06T03:21:21.134Z,29.78
2022-09-06T03:21:51.130Z,29.81
2022-09-06T03:22:21.130Z,29.83
2022-09-06T03:22:51.244Z,29.85
2022-09-06T03:23:21.364Z,29.84
2022-09-06T03:23:51.359Z,29.83
2022-09-06T03:24:21.479Z,29.82
2022-09-06T03:24:51.606Z,29.82
2022-09-06T03:25:21.604Z,29.83
2022-09-06T03:25:51.599Z,29.83
2022-09-06T03:26:21.716Z,29.87
2022-09-06T03:26:51.714Z,29.82
2022-09-06T03:27:21.711Z,29.83
2022-09-06T03:27:51.826Z,29.82
2022-09-06T03:28:21.945Z,29.81
2022-09-06T03:28:52.042Z,29.83
2022-09-06T03:29:22.129Z,29.83
2022-09-06T03:29:52.208Z,29.88
2022-09-06T03:30:22.459Z,29.85
2022-09-06T03:30:52.453Z,29.90
2022-09-06T03:31:22.392Z,29.88
2022-09-06T03:31:52.473Z,29.90
2022-09-06T03:32:22.558Z,29.90
2022-09-06T03:32:52.628Z,29.91
2022-09-06T03:33:22.714Z,29.99
2022-09-06T03:33:52.792Z,30.08
2022-09-06T03:34:22.872Z,30.00
2022-09-06T03:34:52.947Z,30.07
2022-09-06T03:35:23.030Z,30.03
2022-09-06T03:35:53.114Z,30.02
2022-09-06T03:36:23.197Z,29.99
2022-09-06T03:36:53.278Z,30.02
2022-09-06T03:37:23.363Z,30.11
2022-09-06T03:37:53.441Z,30.05
2022-09-06T03:38:23.573Z,30.09
2022-09-06T03:38:53.524Z,30.14
2022-09-06T03:39:23.682Z,30.12
2022-09-06T03:39:53.740Z,30.12
2022-09-06T03:40:23.732Z,30.09
2022-09-06T03:40:53.732Z,30.14
2022-09-06T03:41:23.843Z,30.11
2022-09-06T03:41:53.967Z,30.13
2022-09-06T03:42:23.962Z,30.16
2022-09-06T03:42:54.082Z,30.18
2022-09-06T03:43:24.203Z,30.17
2022-09-06T03:43:54.198Z,30.15
2022-09-06T03:44:24.193Z,30.15
2022-09-06T03:44:54.311Z,30.17
2022-09-06T03:45:24.309Z,30.13
2022-09-06T03:45:54.342Z,30.15
2022-09-06T03:46:24.458Z,30.11
2022-09-06T03:46:54.473Z,32.16
2022-09-06T03:47:24.468Z,33.76
2022-09-06T03:47:54.476Z,35.70
2022-09-06T03:48:24.742Z,36.66
2022-09-06T03:48:54.615Z,35.92
2022-09-06T03:49:24.732Z,35.65
2022-09-06T03:49:54.848Z,35.79
2022-09-06T03:50:24.840Z,35.60
2022-09-06T03:50:54.958Z,35.31
2022-09-06T03:51:25.071Z,34.77
2022-09-06T03:51:55.200Z,34.78
2022-09-06T03:52:25.189Z,34.62
2022-09-06T03:52:55.327Z,34.90
2022-09-06T03:53:25.328Z,34.88
2022-09-06T03:53:55.316Z,35.24
2022-09-06T03:54:25.435Z,35.22
2022-09-06T03:54:55.430Z,35.19
2022-09-06T03:55:25.429Z,34.88
2022-09-06T03:55:55.544Z,34.59
2022-09-06T03:56:25.659Z,34.90
2022-09-06T03:56:55.781Z,34.99
2022-09-06T03:57:25.775Z,35.30
2022-09-06T03:57:55.894Z,35.49
2022-09-06T03:58:26.137Z,36.26
2022-09-06T03:58:56.026Z,36.10
2022-09-06T03:59:26.139Z,35.86
2022-09-06T03:59:56.254Z,36.36
2022-09-06T04:00:26.246Z,36.52
2022-09-06T04:00:56.400Z,36.51
2022-09-06T04:01:26.428Z,36.49
2022-09-06T04:01:56.478Z,36.26
2022-09-06T04:02:26.488Z,36.85
2022-09-06T04:02:59.731Z,36.87
2022-09-06T04:03:26.496Z,36.68
2022-09-06T04:03:56.615Z,36.67
2022-09-06T04:04:26.733Z,36.98
2022-09-06T04:04:56.725Z,36.78
2022-09-06T04:05:26.728Z,36.84
2022-09-06T04:05:56.848Z,36.57
2022-09-06T04:06:26.958Z,36.30
2022-09-06T04:06:56.962Z,36.27
2022-09-06T04:07:26.951Z,36.10
2022-09-06T04:07:57.066Z,35.97
2022-09-06T04:08:27.085Z,35.86
2022-09-06T04:08:57.061Z,35.93
2022-09-06T04:09:27.060Z,35.86
2022-09-06T04:09:57.059Z,35.77
2022-09-06T04:10:27.174Z,35.79
2022-09-06T04:10:57.290Z,35.67
2022-09-06T04:11:27.287Z,35.51
2022-09-06T04:11:57.409Z,35.45
2022-09-06T04:12:27.526Z,35.54
2022-09-06T04:12:57.523Z,35.57
2022-09-06T04:13:27.524Z,35.49
2022-09-06T04:13:57.647Z,35.57
2022-09-06T04:14:27.638Z,35.75
2022-09-06T04:14:57.754Z,35.55
2022-09-06T04:15:27.874Z,35.41
2022-09-06T04:15:57.991Z,35.54
2022-09-06T04:16:28.045Z,35.54
2022-09-06T04:16:58.111Z,35.46
2022-09-06T04:17:28.100Z,35.47
2022-09-06T04:17:58.218Z,35.45
2022-09-06T04:18:28.454Z,35.48
2022-09-06T04:18:58.386Z,35.43
2022-09-06T04:19:28.378Z,35.30
2022-09-06T04:19:58.498Z,35.33
2022-09-06T04:20:28.493Z,35.25
2022-09-06T04:20:58.619Z,35.38
2022-09-06T04:21:28.609Z,35.41
2022-09-06T04:21:58.608Z,35.49
2022-09-06T04:22:28.721Z,35.52
2022-09-06T04:22:58.839Z,35.44
2022-09-06T04:23:28.959Z,35.50
2022-09-06T04:23:59.074Z,35.86
2022-09-06T04:24:29.080Z,35.94
2022-09-06T04:24:59.073Z,36.56
2022-09-06T04:25:29.187Z,38.05
2022-09-06T04:25:59.316Z,38.68
2022-09-06T04:26:29.422Z,37.91
2022-09-06T04:26:59.429Z,37.62
2022-09-06T04:27:29.420Z,37.47
2022-09-06T04:27:59.546Z,37.27
2022-09-06T04:28:29.616Z,37.07
2022-09-06T04:28:59.616Z,36.63
2022-09-06T04:29:29.695Z,36.41
2022-09-06T04:29:59.774Z,36.45
2022-09-06T04:30:29.859Z,36.36
2022-09-06T04:31:04.372Z,37.04
2022-09-06T04:31:30.084Z,38.17
2022-09-06T04:32:00.120Z,37.60
2022-09-06T04:32:30.089Z,37.50
2022-09-06T04:33:00.181Z,37.63
2022-09-06T04:33:30.265Z,37.97
2022-09-06T04:34:00.345Z,38.00
2022-09-06T04:34:30.436Z,37.75
2022-09-06T04:35:00.519Z,37.65
2022-09-06T04:35:30.595Z,37.52
2022-09-06T04:36:00.685Z,37.36
2022-09-06T04:36:30.762Z,37.24
2022-09-06T04:37:00.860Z,37.11
2022-09-06T04:37:30.942Z,37.07
2022-09-06T04:38:01.023Z,36.96
2022-09-06T04:38:31.100Z,36.92
2022-09-06T04:39:01.215Z,36.79
2022-09-06T04:39:31.245Z,36.68
2022-09-06T04:40:01.351Z,36.56
2022-09-06T04:40:31.236Z,36.51
2022-09-06T04:41:01.355Z,36.47
2022-09-06T04:41:31.468Z,36.39
2022-09-06T04:42:01.841Z,36.40
2022-09-06T04:42:31.578Z,36.32
2022-09-06T04:43:01.701Z,36.20
2022-09-06T04:43:31.697Z,36.12
2022-09-06T04:44:01.692Z,36.05
2022-09-06T04:44:31.693Z,35.97
2022-09-06T04:45:01.686Z,35.90
2022-09-06T04:45:31.855Z,35.73
2022-09-06T04:46:02.070Z,35.64
2022-09-06T04:46:31.881Z,35.51
2022-09-06T04:47:04.358Z,35.49
2022-09-06T04:47:32.044Z,35.51
2022-09-06T04:48:02.045Z,35.49
2022-09-06T04:48:32.040Z,35.49
2022-09-06T04:49:02.164Z,35.43
2022-09-06T04:49:32.155Z,35.45
2022-09-06T04:50:02.280Z,35.40
2022-09-06T04:50:32.267Z,35.38
2022-09-06T04:51:02.265Z,35.36
2022-09-06T04:51:32.381Z,35.32
2022-09-06T04:52:02.510Z,35.38
2022-09-06T04:52:32.508Z,35.38
2022-09-06T04:53:02.629Z,35.43
2022-09-06T04:53:32.744Z,35.45
2022-09-06T04:54:02.752Z,35.38
2022-09-06T04:54:32.741Z,35.40
2022-09-06T04:55:02.859Z,35.38
2022-09-06T04:55:32.857Z,35.47
2022-09-06T04:56:02.976Z,35.44
2022-09-06T04:56:33.091Z,35.46
2022-09-06T04:57:03.284Z,35.43
2022-09-06T04:57:33.275Z,35.39
2022-09-06T04:58:03.394Z,35.39
2022-09-06T04:58:33.390Z,35.44
2022-09-06T04:59:03.515Z,35.44
2022-09-06T04:59:33.648Z,35.47
2022-09-06T05:00:03.647Z,35.50
2022-09-06T05:00:33.655Z,35.58
2022-09-06T05:01:03.690Z,35.61
2022-09-06T05:01:33.748Z,35.79
2022-09-06T05:02:03.772Z,35.73
2022-09-06T05:02:33.871Z,35.91
2022-09-06T05:03:03.854Z,35.89
2022-09-06T05:03:33.968Z,35.98
2022-09-06T05:04:04.085Z,35.92
2022-09-06T05:04:34.083Z,35.89
2022-09-06T05:05:04.206Z,35.96
2022-09-06T05:05:34.322Z,35.84
2022-09-06T05:06:04.440Z,35.89
2022-09-06T05:06:34.433Z,35.87
2022-09-06T05:07:04.563Z,35.94
2022-09-06T05:07:34.559Z,35.95
2022-09-06T05:08:04.560Z,35.97
2022-09-06T05:08:34.548Z,35.93
2022-09-06T05:09:04.670Z,35.87
2022-09-06T05:09:34.664Z,35.95
2022-09-06T05:10:04.782Z,35.91
2022-09-06T05:10:34.897Z,35.94
2022-09-06T05:11:05.018Z,35.95
2022-09-06T05:11:35.138Z,35.91
2022-09-06T05:12:05.253Z,35.92
2022-09-06T05:12:35.252Z,36.08
2022-09-06T05:13:05.249Z,36.17
2022-09-06T05:13:35.365Z,36.45
2022-09-06T05:14:05.486Z,36.99
2022-09-06T05:14:35.600Z,37.23
2022-09-06T05:15:05.721Z,37.52
2022-09-06T05:15:35.836Z,40.85
2022-09-06T05:16:06.051Z,39.26
2022-09-06T05:16:36.121Z,39.91
2022-09-06T05:17:06.162Z,38.96
2022-09-06T05:17:36.164Z,38.72
2022-09-06T05:18:06.281Z,39.04
2022-09-06T05:18:36.400Z,38.49
2022-09-06T05:19:06.519Z,37.87
2022-09-06T05:19:36.514Z,37.64
2022-09-06T05:20:06.510Z,37.21
2022-09-06T05:20:36.627Z,37.12
2022-09-06T05:21:06.747Z,37.18
2022-09-06T05:21:36.861Z,36.90
2022-09-06T05:22:06.976Z,36.60
2022-09-06T05:22:36.988Z,36.42
2022-09-06T05:23:06.989Z,36.16
2022-09-06T05:23:37.101Z,36.23
2022-09-06T05:24:07.218Z,36.38
2022-09-06T05:24:37.336Z,36.07
2022-09-06T05:25:07.453Z,36.04
2022-09-06T05:25:37.447Z,35.98
2022-09-06T05:26:07.567Z,35.91
2022-09-06T05:26:37.683Z,35.88
2022-09-06T05:27:07.802Z,36.04
2022-09-06T05:27:37.802Z,36.16
2022-09-06T05:28:07.798Z,36.16
2022-09-06T05:28:37.910Z,36.09
2022-09-06T05:29:07.988Z,36.10
2022-09-06T05:29:38.069Z,36.14
2022-09-06T05:30:08.148Z,36.38
2022-09-06T05:30:38.232Z,36.31
2022-09-06T05:31:08.314Z,36.67
2022-09-06T05:31:38.466Z,36.40
2022-09-06T05:32:08.559Z,36.67
2022-09-06T05:32:38.530Z,36.93
2022-09-06T05:33:08.611Z,36.72
2022-09-06T05:33:38.688Z,37.04
2022-09-06T05:34:08.773Z,36.76
2022-09-06T05:34:38.869Z,36.93
2022-09-06T05:35:08.944Z,36.85
2022-09-06T05:35:39.025Z,36.80
2022-09-06T05:36:09.109Z,36.73
2022-09-06T05:36:39.184Z,36.63
2022-09-06T05:37:09.271Z,36.51
2022-09-06T05:37:39.353Z,36.47
2022-09-06T05:38:09.428Z,36.45
2022-09-06T05:38:39.513Z,36.47
2022-09-06T05:39:09.507Z,36.40
2022-09-06T05:39:39.654Z,36.44
2022-09-06T05:40:09.728Z,36.38
2022-09-06T05:40:39.729Z,36.25
2022-09-06T05:41:09.845Z,36.25
2022-09-06T05:41:39.961Z,36.21
2022-09-06T05:42:10.082Z,36.26
2022-09-06T05:42:40.215Z,36.20
2022-09-06T05:43:10.206Z,36.16
2022-09-06T05:43:40.194Z,36.09
2022-09-06T05:44:10.316Z,36.12
2022-09-06T05:44:40.431Z,36.03
2022-09-06T05:45:10.548Z,36.03
2022-09-06T05:45:40.740Z,35.90
2022-09-06T05:46:10.833Z,35.90
2022-09-06T05:46:40.839Z,35.89
2022-09-06T05:47:10.955Z,35.96
2022-09-06T05:47:41.084Z,35.75
2022-09-06T05:48:11.073Z,35.77
2022-09-06T05:48:41.197Z,35.68
2022-09-06T05:49:11.310Z,35.85
2022-09-06T05:49:41.432Z,35.81
2022-09-06T05:50:11.549Z,35.93
2022-09-06T05:50:41.666Z,35.82
2022-09-06T05:51:11.663Z,35.99
2022-09-06T05:51:41.783Z,36.04
2022-09-06T05:52:11.897Z,36.19
2022-09-06T05:52:42.025Z,36.15
2022-09-06T05:53:12.019Z,36.28
2022-09-06T05:53:42.139Z,36.24
2022-09-06T05:54:12.257Z,36.21
2022-09-06T05:54:42.378Z,36.29
2022-09-06T05:55:12.510Z,36.37
2022-09-06T05:55:43.208Z,36.21
2022-09-06T05:56:12.613Z,36.29
2022-09-06T05:56:42.619Z,36.14
2022-09-06T05:57:12.660Z,36.35
2022-09-06T05:57:42.759Z,36.39
2022-09-06T05:58:12.802Z,36.32
2022-09-06T05:58:42.923Z,36.42
2022-09-06T05:59:13.048Z,36.43
2022-09-06T05:59:43.036Z,36.43
2022-09-06T06:00:13.152Z,36.42
2022-09-06T06:00:43.272Z,36.40
2022-09-06T06:01:13.330Z,36.31
2022-09-06T06:01:43.393Z,36.40
2022-09-06T06:02:13.457Z,36.30
2022-09-06T06:02:43.523Z,36.15
2022-09-06T06:03:13.500Z,36.16
2022-09-06T06:03:43.617Z,36.10
2022-09-06T06:04:13.734Z,36.09
2022-09-06T06:04:43.852Z,36.10
2022-09-06T06:05:13.968Z,36.07
2022-09-06T06:05:44.086Z,36.04
2022-09-06T06:06:14.077Z,35.96
2022-09-06T06:06:44.199Z,35.82
2022-09-06T06:07:14.316Z,35.81
2022-09-06T06:07:44.452Z,35.80
2022-09-06T06:08:14.468Z,35.81
2022-09-06T06:08:44.560Z,35.76
2022-09-06T06:09:14.673Z,35.61
2022-09-06T06:09:44.803Z,35.58
2022-09-06T06:10:14.790Z,35.63
2022-09-06T06:10:44.906Z,35.67
2022-09-06T06:11:14.900Z,35.70
2022-09-06T06:11:44.902Z,35.60
2022-09-06T06:12:14.894Z,35.61
2022-09-06T06:12:44.917Z,35.60
2022-09-06T06:13:14.906Z,35.66
2022-09-06T06:13:45.024Z,35.70
2022-09-06T06:14:15.143Z,35.60
2022-09-06T06:14:45.140Z,35.72
2022-09-06T06:15:15.254Z,35.66
2022-09-06T06:15:45.376Z,35.73
2022-09-06T06:16:15.439Z,35.73
2022-09-06T06:16:45.561Z,35.68
2022-09-06T06:17:15.533Z,35.68
2022-09-06T06:17:45.531Z,35.66
2022-09-06T06:18:15.524Z,35.68
2022-09-06T06:18:49.980Z,35.68
2022-09-06T06:19:15.656Z,35.66
2022-09-06T06:19:45.651Z,35.55
2022-09-06T06:20:15.769Z,35.52
2022-09-06T06:20:45.889Z,35.51
2022-09-06T06:21:16.015Z,35.46
2022-09-06T06:21:46.126Z,35.46
2022-09-06T06:22:16.241Z,35.44
2022-09-06T06:22:46.372Z,35.44
2022-09-06T06:23:16.363Z,35.43
2022-09-06T06:23:46.483Z,35.47
2022-09-06T06:24:16.477Z,35.44
2022-09-06T06:24:46.610Z,35.59
2022-09-06T06:25:16.597Z,35.50
2022-09-06T06:25:46.716Z,35.60
2022-09-06T06:26:16.709Z,35.61
2022-09-06T06:26:46.827Z,35.60
2022-09-06T06:27:16.820Z,35.62
2022-09-06T06:27:46.949Z,35.81